sensor_id;sensor_type;location;lat;lon;timestamp;P1;durP1;ratioP1;P2;durP2;ratioP2
37131;SDS011;23035;50.032;21.978;2023-02-07T00:01:28;333.48;;;126.68;;
37131;SDS011;23035;50.032;21.978;2023-02-07T00:06:33;314.58;;;120.55;;
37131;SDS011;23035;50.032;21.978;2023-02-07T00:16:44;302.10;;;115.97;;
37131;SDS011;23035;50.032;21.978;2023-02-07T00:21:49;279.77;;;111.72;;
37131;SDS011;23035;50.032;21.978;2023-02-07T00:26:55;279.33;;;108.35;;
37131;SDS011;23035;50.032;21.978;2023-02-07T00:37:03;285.60;;;112.43;;
37131;SDS011;23035;50.032;21.978;2023-02-07T00:42:09;270.77;;;103.40;;
37131;SDS011;23035;50.032;21.978;2023-02-07T00:47:14;253.77;;;97.47;;
37131;SDS011;23035;50.032;21.978;2023-02-07T00:52:18;239.43;;;95.97;;
37131;SDS011;23035;50.032;21.978;2023-02-07T00:57:24;259.63;;;103.18;;
37131;SDS011;23035;50.032;21.978;2023-02-07T01:02:28;240.05;;;97.00;;
37131;SDS011;23035;50.032;21.978;2023-02-07T01:07:33;328.25;;;127.00;;
37131;SDS011;23035;50.032;21.978;2023-02-07T01:12:39;221.43;;;89.80;;
37131;SDS011;23035;50.032;21.978;2023-02-07T01:17:44;208.30;;;84.43;;
37131;SDS011;23035;50.032;21.978;2023-02-07T01:22:48;193.68;;;80.40;;
37131;SDS011;23035;50.032;21.978;2023-02-07T01:27:55;201.15;;;87.05;;
37131;SDS011;23035;50.032;21.978;2023-02-07T01:33:00;210.10;;;83.72;;
37131;SDS011;23035;50.032;21.978;2023-02-07T01:38:05;206.85;;;83.15;;
37131;SDS011;23035;50.032;21.978;2023-02-07T01:43:12;192.82;;;81.43;;
37131;SDS011;23035;50.032;21.978;2023-02-07T01:48:21;244.43;;;108.30;;
37131;SDS011;23035;50.032;21.978;2023-02-07T01:53:30;196.00;;;82.85;;
37131;SDS011;23035;50.032;21.978;2023-02-07T01:58:40;189.02;;;80.63;;
37131;SDS011;23035;50.032;21.978;2023-02-07T02:03:46;195.20;;;84.43;;
37131;SDS011;23035;50.032;21.978;2023-02-07T02:08:53;199.57;;;85.05;;
37131;SDS011;23035;50.032;21.978;2023-02-07T02:14:04;174.70;;;73.57;;
37131;SDS011;23035;50.032;21.978;2023-02-07T02:19:30;166.82;;;69.43;;
37131;SDS011;23035;50.032;21.978;2023-02-07T02:25:09;157.77;;;68.60;;
37131;SDS011;23035;50.032;21.978;2023-02-07T02:30:38;104.80;;;45.40;;
37131;SDS011;23035;50.032;21.978;2023-02-07T02:36:02;81.05;;;32.33;;
37131;SDS011;23035;50.032;21.978;2023-02-07T02:41:14;81.03;;;34.38;;
37131;SDS011;23035;50.032;21.978;2023-02-07T02:46:25;87.68;;;36.00;;
37131;SDS011;23035;50.032;21.978;2023-02-07T02:51:35;85.45;;;36.22;;
37131;SDS011;23035;50.032;21.978;2023-02-07T02:56:43;97.03;;;38.60;;
37131;SDS011;23035;50.032;21.978;2023-02-07T03:02:02;107.10;;;41.83;;
37131;SDS011;23035;50.032;21.978;2023-02-07T03:07:25;102.88;;;43.03;;
37131;SDS011;23035;50.032;21.978;2023-02-07T03:12:43;100.70;;;42.17;;
37131;SDS011;23035;50.032;21.978;2023-02-07T03:17:58;109.82;;;42.47;;
37131;SDS011;23035;50.032;21.978;2023-02-07T03:23:10;105.15;;;43.60;;
37131;SDS011;23035;50.032;21.978;2023-02-07T03:28:18;107.25;;;43.72;;
37131;SDS011;23035;50.032;21.978;2023-02-07T03:33:24;101.53;;;42.80;;
37131;SDS011;23035;50.032;21.978;2023-02-07T03:38:31;100.30;;;43.50;;
37131;SDS011;23035;50.032;21.978;2023-02-07T03:43:37;113.85;;;45.30;;
37131;SDS011;23035;50.032;21.978;2023-02-07T03:48:43;106.82;;;44.58;;
37131;SDS011;23035;50.032;21.978;2023-02-07T03:53:49;108.68;;;43.25;;
37131;SDS011;23035;50.032;21.978;2023-02-07T03:58:53;120.07;;;44.13;;
37131;SDS011;23035;50.032;21.978;2023-02-07T04:03:58;116.68;;;46.95;;
37131;SDS011;23035;50.032;21.978;2023-02-07T04:09:05;107.45;;;43.80;;
37131;SDS011;23035;50.032;21.978;2023-02-07T04:14:15;103.15;;;42.22;;
37131;SDS011;23035;50.032;21.978;2023-02-07T04:19:25;105.10;;;43.65;;
37131;SDS011;23035;50.032;21.978;2023-02-07T04:24:34;104.40;;;41.75;;
37131;SDS011;23035;50.032;21.978;2023-02-07T04:29:42;100.70;;;38.28;;
37131;SDS011;23035;50.032;21.978;2023-02-07T04:34:50;102.07;;;41.90;;
37131;SDS011;23035;50.032;21.978;2023-02-07T04:39:59;101.82;;;42.38;;
37131;SDS011;23035;50.032;21.978;2023-02-07T04:45:07;99.80;;;40.47;;
37131;SDS011;23035;50.032;21.978;2023-02-07T04:50:16;99.60;;;40.58;;
37131;SDS011;23035;50.032;21.978;2023-02-07T04:55:25;87.07;;;37.67;;
37131;SDS011;23035;50.032;21.978;2023-02-07T05:00:33;94.13;;;38.05;;
37131;SDS011;23035;50.032;21.978;2023-02-07T05:05:42;99.18;;;41.80;;
37131;SDS011;23035;50.032;21.978;2023-02-07T05:10:52;100.03;;;43.50;;
37131;SDS011;23035;50.032;21.978;2023-02-07T05:16:00;86.80;;;36.17;;
37131;SDS011;23035;50.032;21.978;2023-02-07T05:21:07;98.15;;;42.17;;
37131;SDS011;23035;50.032;21.978;2023-02-07T05:26:17;127.78;;;50.85;;
37131;SDS011;23035;50.032;21.978;2023-02-07T05:31:25;105.82;;;41.97;;
37131;SDS011;23035;50.032;21.978;2023-02-07T05:36:46;93.65;;;38.15;;
37131;SDS011;23035;50.032;21.978;2023-02-07T05:41:55;94.22;;;37.88;;
37131;SDS011;23035;50.032;21.978;2023-02-07T05:47:02;84.63;;;36.72;;
37131;SDS011;23035;50.032;21.978;2023-02-07T05:52:07;82.43;;;36.10;;
37131;SDS011;23035;50.032;21.978;2023-02-07T05:57:14;88.73;;;35.23;;
37131;SDS011;23035;50.032;21.978;2023-02-07T06:02:22;84.80;;;34.45;;
37131;SDS011;23035;50.032;21.978;2023-02-07T06:07:30;79.18;;;33.00;;
37131;SDS011;23035;50.032;21.978;2023-02-07T06:12:38;74.22;;;34.40;;
37131;SDS011;23035;50.032;21.978;2023-02-07T06:17:44;83.50;;;38.17;;
37131;SDS011;23035;50.032;21.978;2023-02-07T06:22:51;72.72;;;32.00;;
37131;SDS011;23035;50.032;21.978;2023-02-07T06:27:57;73.68;;;31.50;;
37131;SDS011;23035;50.032;21.978;2023-02-07T06:33:02;122.70;;;49.30;;
37131;SDS011;23035;50.032;21.978;2023-02-07T06:38:08;88.90;;;38.00;;
37131;SDS011;23035;50.032;21.978;2023-02-07T06:43:14;72.82;;;34.33;;
37131;SDS011;23035;50.032;21.978;2023-02-07T06:48:21;65.68;;;28.25;;
37131;SDS011;23035;50.032;21.978;2023-02-07T06:53:26;62.22;;;28.67;;
37131;SDS011;23035;50.032;21.978;2023-02-07T06:58:36;69.03;;;27.88;;
37131;SDS011;23035;50.032;21.978;2023-02-07T07:03:44;64.70;;;29.30;;
37131;SDS011;23035;50.032;21.978;2023-02-07T07:08:49;85.18;;;34.00;;
37131;SDS011;23035;50.032;21.978;2023-02-07T07:13:56;82.60;;;33.88;;
37131;SDS011;23035;50.032;21.978;2023-02-07T07:19:02;94.30;;;38.50;;
37131;SDS011;23035;50.032;21.978;2023-02-07T07:24:10;101.45;;;38.15;;
37131;SDS011;23035;50.032;21.978;2023-02-07T07:34:23;101.72;;;42.97;;
37131;SDS011;23035;50.032;21.978;2023-02-07T07:39:27;142.52;;;49.10;;
37131;SDS011;23035;50.032;21.978;2023-02-07T07:44:34;125.40;;;45.85;;
37131;SDS011;23035;50.032;21.978;2023-02-07T07:49:40;93.55;;;39.17;;
37131;SDS011;23035;50.032;21.978;2023-02-07T07:54:44;92.72;;;37.13;;
37131;SDS011;23035;50.032;21.978;2023-02-07T07:59:51;96.50;;;37.20;;
37131;SDS011;23035;50.032;21.978;2023-02-07T08:04:55;100.95;;;38.10;;
37131;SDS011;23035;50.032;21.978;2023-02-07T08:10:00;124.53;;;42.15;;
37131;SDS011;23035;50.032;21.978;2023-02-07T08:15:07;118.68;;;39.80;;
37131;SDS011;23035;50.032;21.978;2023-02-07T08:20:12;106.80;;;40.03;;
37131;SDS011;23035;50.032;21.978;2023-02-07T08:25:17;101.90;;;38.80;;
37131;SDS011;23035;50.032;21.978;2023-02-07T08:30:24;108.22;;;41.25;;
37131;SDS011;23035;50.032;21.978;2023-02-07T08:35:30;87.95;;;35.85;;
37131;SDS011;23035;50.032;21.978;2023-02-07T08:40:35;84.63;;;36.13;;
37131;SDS011;23035;50.032;21.978;2023-02-07T08:45:45;78.65;;;36.08;;
37131;SDS011;23035;50.032;21.978;2023-02-07T08:50:53;82.63;;;37.15;;
37131;SDS011;23035;50.032;21.978;2023-02-07T08:55:59;81.55;;;34.97;;
37131;SDS011;23035;50.032;21.978;2023-02-07T09:01:06;72.78;;;35.65;;
37131;SDS011;23035;50.032;21.978;2023-02-07T09:06:14;76.72;;;35.05;;
37131;SDS011;23035;50.032;21.978;2023-02-07T09:11:20;91.43;;;38.35;;
37131;SDS011;23035;50.032;21.978;2023-02-07T09:16:26;77.32;;;36.38;;
37131;SDS011;23035;50.032;21.978;2023-02-07T09:21:32;84.82;;;37.38;;
37131;SDS011;23035;50.032;21.978;2023-02-07T09:26:41;81.68;;;36.83;;
37131;SDS011;23035;50.032;21.978;2023-02-07T09:31:50;79.38;;;36.60;;
37131;SDS011;23035;50.032;21.978;2023-02-07T09:36:57;81.25;;;36.65;;
37131;SDS011;23035;50.032;21.978;2023-02-07T09:42:08;76.15;;;36.83;;
37131;SDS011;23035;50.032;21.978;2023-02-07T09:47:27;74.68;;;34.17;;
37131;SDS011;23035;50.032;21.978;2023-02-07T09:52:38;83.05;;;36.22;;
37131;SDS011;23035;50.032;21.978;2023-02-07T09:57:49;84.07;;;36.85;;
37131;SDS011;23035;50.032;21.978;2023-02-07T10:03:04;76.90;;;35.95;;
37131;SDS011;23035;50.032;21.978;2023-02-07T10:08:20;81.18;;;38.25;;
37131;SDS011;23035;50.032;21.978;2023-02-07T10:13:41;91.53;;;43.38;;
37131;SDS011;23035;50.032;21.978;2023-02-07T10:18:59;81.18;;;38.35;;
37131;SDS011;23035;50.032;21.978;2023-02-07T10:24:21;79.70;;;40.38;;
37131;SDS011;23035;50.032;21.978;2023-02-07T10:29:47;107.50;;;49.17;;
37131;SDS011;23035;50.032;21.978;2023-02-07T10:35:01;83.93;;;40.95;;
37131;SDS011;23035;50.032;21.978;2023-02-07T10:40:21;97.97;;;42.95;;
37131;SDS011;23035;50.032;21.978;2023-02-07T10:45:31;94.38;;;41.90;;
37131;SDS011;23035;50.032;21.978;2023-02-07T10:50:41;82.22;;;38.10;;
37131;SDS011;23035;50.032;21.978;2023-02-07T10:55:49;88.65;;;39.03;;
37131;SDS011;23035;50.032;21.978;2023-02-07T11:00:56;82.03;;;40.03;;
37131;SDS011;23035;50.032;21.978;2023-02-07T11:06:05;77.18;;;33.15;;
37131;SDS011;23035;50.032;21.978;2023-02-07T11:11:23;78.38;;;35.75;;
37131;SDS011;23035;50.032;21.978;2023-02-07T11:16:35;77.30;;;35.22;;
37131;SDS011;23035;50.032;21.978;2023-02-07T11:21:51;83.47;;;38.90;;
37131;SDS011;23035;50.032;21.978;2023-02-07T11:26:59;85.55;;;39.25;;
37131;SDS011;23035;50.032;21.978;2023-02-07T11:32:07;86.88;;;39.38;;
37131;SDS011;23035;50.032;21.978;2023-02-07T11:37:22;80.95;;;32.78;;
37131;SDS011;23035;50.032;21.978;2023-02-07T11:42:29;81.53;;;39.03;;
37131;SDS011;23035;50.032;21.978;2023-02-07T11:47:35;83.47;;;35.47;;
37131;SDS011;23035;50.032;21.978;2023-02-07T11:52:47;85.63;;;38.78;;
37131;SDS011;23035;50.032;21.978;2023-02-07T11:58:00;76.25;;;34.45;;
37131;SDS011;23035;50.032;21.978;2023-02-07T12:03:19;83.63;;;38.00;;
37131;SDS011;23035;50.032;21.978;2023-02-07T12:08:28;78.75;;;36.55;;
37131;SDS011;23035;50.032;21.978;2023-02-07T12:13:38;78.28;;;36.30;;
37131;SDS011;23035;50.032;21.978;2023-02-07T12:18:49;77.72;;;37.35;;
37131;SDS011;23035;50.032;21.978;2023-02-07T12:24:03;75.57;;;32.97;;
37131;SDS011;23035;50.032;21.978;2023-02-07T12:29:19;77.82;;;32.47;;
37131;SDS011;23035;50.032;21.978;2023-02-07T12:34:33;81.82;;;36.78;;
37131;SDS011;23035;50.032;21.978;2023-02-07T12:39:47;76.20;;;34.28;;
37131;SDS011;23035;50.032;21.978;2023-02-07T12:45:00;79.20;;;36.90;;
37131;SDS011;23035;50.032;21.978;2023-02-07T12:50:14;71.03;;;32.13;;
37131;SDS011;23035;50.032;21.978;2023-02-07T12:55:32;82.25;;;35.95;;
37131;SDS011;23035;50.032;21.978;2023-02-07T13:00:51;81.07;;;39.38;;
37131;SDS011;23035;50.032;21.978;2023-02-07T13:06:04;86.35;;;38.92;;
37131;SDS011;23035;50.032;21.978;2023-02-07T13:11:23;80.95;;;38.85;;
37131;SDS011;23035;50.032;21.978;2023-02-07T13:16:40;87.55;;;41.28;;
37131;SDS011;23035;50.032;21.978;2023-02-07T13:21:55;89.82;;;43.47;;
37131;SDS011;23035;50.032;21.978;2023-02-07T13:27:05;77.65;;;39.50;;
37131;SDS011;23035;50.032;21.978;2023-02-07T13:32:18;90.00;;;43.08;;
37131;SDS011;23035;50.032;21.978;2023-02-07T13:37:27;87.05;;;41.40;;
37131;SDS011;23035;50.032;21.978;2023-02-07T13:42:42;86.72;;;41.13;;
37131;SDS011;23035;50.032;21.978;2023-02-07T13:47:57;89.07;;;41.95;;
37131;SDS011;23035;50.032;21.978;2023-02-07T13:53:12;84.82;;;40.92;;
37131;SDS011;23035;50.032;21.978;2023-02-07T14:04:17;91.70;;;41.80;;
37131;SDS011;23035;50.032;21.978;2023-02-07T14:09:27;84.05;;;39.63;;
37131;SDS011;23035;50.032;21.978;2023-02-07T14:14:38;84.35;;;42.08;;
37131;SDS011;23035;50.032;21.978;2023-02-07T14:19:50;96.25;;;44.05;;
37131;SDS011;23035;50.032;21.978;2023-02-07T14:30:29;99.10;;;43.58;;
37131;SDS011;23035;50.032;21.978;2023-02-07T14:35:45;93.28;;;42.63;;
37131;SDS011;23035;50.032;21.978;2023-02-07T14:41:21;79.05;;;39.35;;
37131;SDS011;23035;50.032;21.978;2023-02-07T14:46:33;93.53;;;42.38;;
37131;SDS011;23035;50.032;21.978;2023-02-07T14:51:41;85.03;;;40.05;;
37131;SDS011;23035;50.032;21.978;2023-02-07T14:56:51;92.55;;;40.90;;
37131;SDS011;23035;50.032;21.978;2023-02-07T15:02:28;91.68;;;43.63;;
37131;SDS011;23035;50.032;21.978;2023-02-07T15:07:34;98.55;;;45.60;;
37131;SDS011;23035;50.032;21.978;2023-02-07T15:12:38;80.32;;;39.22;;
37131;SDS011;23035;50.032;21.978;2023-02-07T15:17:47;87.93;;;41.75;;
37131;SDS011;23035;50.032;21.978;2023-02-07T15:22:55;87.38;;;42.92;;
37131;SDS011;23035;50.032;21.978;2023-02-07T15:28:03;82.38;;;39.67;;
37131;SDS011;23035;50.032;21.978;2023-02-07T15:33:31;89.15;;;37.70;;
37131;SDS011;23035;50.032;21.978;2023-02-07T15:38:46;83.43;;;37.72;;
37131;SDS011;23035;50.032;21.978;2023-02-07T15:43:55;80.72;;;39.25;;
37131;SDS011;23035;50.032;21.978;2023-02-07T15:49:03;81.03;;;40.92;;
37131;SDS011;23035;50.032;21.978;2023-02-07T15:54:11;90.55;;;39.03;;
37131;SDS011;23035;50.032;21.978;2023-02-07T15:59:20;86.70;;;39.92;;
37131;SDS011;23035;50.032;21.978;2023-02-07T16:04:29;87.45;;;40.35;;
37131;SDS011;23035;50.032;21.978;2023-02-07T16:09:36;104.53;;;48.28;;
37131;SDS011;23035;50.032;21.978;2023-02-07T16:14:42;101.93;;;48.22;;
37131;SDS011;23035;50.032;21.978;2023-02-07T16:19:49;101.10;;;47.53;;
37131;SDS011;23035;50.032;21.978;2023-02-07T16:24:54;103.22;;;49.03;;
37131;SDS011;23035;50.032;21.978;2023-02-07T16:30:03;102.38;;;48.63;;
37131;SDS011;23035;50.032;21.978;2023-02-07T16:35:16;93.57;;;44.85;;
37131;SDS011;23035;50.032;21.978;2023-02-07T16:40:23;95.50;;;45.03;;
37131;SDS011;23035;50.032;21.978;2023-02-07T16:45:28;94.38;;;44.55;;
37131;SDS011;23035;50.032;21.978;2023-02-07T16:50:38;88.63;;;41.22;;
37131;SDS011;23035;50.032;21.978;2023-02-07T16:55:43;87.82;;;40.45;;
37131;SDS011;23035;50.032;21.978;2023-02-07T17:00:47;100.38;;;46.13;;
37131;SDS011;23035;50.032;21.978;2023-02-07T17:05:55;103.63;;;46.83;;
37131;SDS011;23035;50.032;21.978;2023-02-07T17:11:01;107.10;;;49.75;;
37131;SDS011;23035;50.032;21.978;2023-02-07T17:16:08;121.05;;;53.53;;
37131;SDS011;23035;50.032;21.978;2023-02-07T17:21:16;130.13;;;55.67;;
37131;SDS011;23035;50.032;21.978;2023-02-07T17:26:23;126.55;;;56.97;;
37131;SDS011;23035;50.032;21.978;2023-02-07T17:31:31;130.32;;;57.88;;
37131;SDS011;23035;50.032;21.978;2023-02-07T17:36:38;120.07;;;55.35;;
37131;SDS011;23035;50.032;21.978;2023-02-07T17:41:46;118.97;;;56.08;;
37131;SDS011;23035;50.032;21.978;2023-02-07T17:51:57;123.90;;;53.25;;
37131;SDS011;23035;50.032;21.978;2023-02-07T17:57:02;123.35;;;55.70;;
37131;SDS011;23035;50.032;21.978;2023-02-07T18:02:07;117.10;;;51.88;;
37131;SDS011;23035;50.032;21.978;2023-02-07T18:07:13;119.07;;;56.03;;
37131;SDS011;23035;50.032;21.978;2023-02-07T18:12:18;129.18;;;55.17;;
37131;SDS011;23035;50.032;21.978;2023-02-07T18:17:22;131.40;;;56.33;;
37131;SDS011;23035;50.032;21.978;2023-02-07T18:22:29;152.38;;;65.03;;
37131;SDS011;23035;50.032;21.978;2023-02-07T18:27:34;141.88;;;61.92;;
37131;SDS011;23035;50.032;21.978;2023-02-07T18:32:41;143.55;;;64.97;;
37131;SDS011;23035;50.032;21.978;2023-02-07T18:37:48;131.75;;;58.63;;
37131;SDS011;23035;50.032;21.978;2023-02-07T18:42:52;123.93;;;55.20;;
37131;SDS011;23035;50.032;21.978;2023-02-07T18:47:58;133.68;;;56.88;;
37131;SDS011;23035;50.032;21.978;2023-02-07T18:53:04;141.32;;;57.75;;
37131;SDS011;23035;50.032;21.978;2023-02-07T18:58:08;136.45;;;57.58;;
37131;SDS011;23035;50.032;21.978;2023-02-07T19:03:13;131.77;;;54.90;;
37131;SDS011;23035;50.032;21.978;2023-02-07T19:08:19;133.93;;;56.03;;
37131;SDS011;23035;50.032;21.978;2023-02-07T19:13:23;148.85;;;63.58;;
37131;SDS011;23035;50.032;21.978;2023-02-07T19:18:28;152.63;;;60.60;;
37131;SDS011;23035;50.032;21.978;2023-02-07T19:23:34;148.67;;;58.13;;
37131;SDS011;23035;50.032;21.978;2023-02-07T19:28:40;119.50;;;54.47;;
37131;SDS011;23035;50.032;21.978;2023-02-07T19:33:44;130.57;;;54.70;;
37131;SDS011;23035;50.032;21.978;2023-02-07T19:38:52;135.98;;;59.20;;
37131;SDS011;23035;50.032;21.978;2023-02-07T19:43:57;112.35;;;47.42;;
37131;SDS011;23035;50.032;21.978;2023-02-07T19:49:02;118.57;;;48.95;;
37131;SDS011;23035;50.032;21.978;2023-02-07T19:54:08;116.53;;;49.33;;
37131;SDS011;23035;50.032;21.978;2023-02-07T19:59:13;116.10;;;50.40;;
37131;SDS011;23035;50.032;21.978;2023-02-07T20:04:20;109.13;;;50.13;;
37131;SDS011;23035;50.032;21.978;2023-02-07T20:09:26;97.20;;;45.15;;
37131;SDS011;23035;50.032;21.978;2023-02-07T20:14:30;114.32;;;49.00;;
37131;SDS011;23035;50.032;21.978;2023-02-07T20:19:35;113.78;;;52.47;;
37131;SDS011;23035;50.032;21.978;2023-02-07T20:24:41;116.63;;;51.25;;
37131;SDS011;23035;50.032;21.978;2023-02-07T20:29:48;90.35;;;40.90;;
37131;SDS011;23035;50.032;21.978;2023-02-07T20:34:53;73.63;;;33.78;;
37131;SDS011;23035;50.032;21.978;2023-02-07T20:39:59;85.45;;;37.63;;
37131;SDS011;23035;50.032;21.978;2023-02-07T20:45:03;90.97;;;38.17;;
37131;SDS011;23035;50.032;21.978;2023-02-07T20:50:09;82.13;;;37.08;;
37131;SDS011;23035;50.032;21.978;2023-02-07T20:55:15;101.00;;;43.00;;
37131;SDS011;23035;50.032;21.978;2023-02-07T21:00:20;90.10;;;39.72;;
37131;SDS011;23035;50.032;21.978;2023-02-07T21:05:24;106.65;;;43.83;;
37131;SDS011;23035;50.032;21.978;2023-02-07T21:10:30;105.63;;;44.90;;
37131;SDS011;23035;50.032;21.978;2023-02-07T21:20:38;102.88;;;43.53;;
37131;SDS011;23035;50.032;21.978;2023-02-07T21:30:50;109.13;;;46.22;;
37131;SDS011;23035;50.032;21.978;2023-02-07T21:36:01;112.18;;;49.15;;
37131;SDS011;23035;50.032;21.978;2023-02-07T21:41:08;110.32;;;47.05;;
37131;SDS011;23035;50.032;21.978;2023-02-07T21:46:15;93.45;;;39.75;;
37131;SDS011;23035;50.032;21.978;2023-02-07T21:51:24;73.18;;;33.67;;
37131;SDS011;23035;50.032;21.978;2023-02-07T22:01:35;55.95;;;27.02;;
37131;SDS011;23035;50.032;21.978;2023-02-07T22:06:40;58.88;;;27.27;;
37131;SDS011;23035;50.032;21.978;2023-02-07T22:11:48;59.47;;;25.73;;
37131;SDS011;23035;50.032;21.978;2023-02-07T22:16:52;58.80;;;25.95;;
37131;SDS011;23035;50.032;21.978;2023-02-07T22:21:59;70.25;;;30.80;;
37131;SDS011;23035;50.032;21.978;2023-02-07T22:27:05;57.95;;;25.45;;
37131;SDS011;23035;50.032;21.978;2023-02-07T22:32:09;74.22;;;31.67;;
37131;SDS011;23035;50.032;21.978;2023-02-07T22:37:14;56.53;;;27.00;;
37131;SDS011;23035;50.032;21.978;2023-02-07T22:42:20;56.63;;;27.15;;
37131;SDS011;23035;50.032;21.978;2023-02-07T22:47:25;54.72;;;26.13;;
37131;SDS011;23035;50.032;21.978;2023-02-07T22:52:32;59.83;;;27.95;;
37131;SDS011;23035;50.032;21.978;2023-02-07T22:57:38;59.65;;;28.05;;
37131;SDS011;23035;50.032;21.978;2023-02-07T23:02:43;63.90;;;29.83;;
37131;SDS011;23035;50.032;21.978;2023-02-07T23:07:47;62.97;;;29.60;;
37131;SDS011;23035;50.032;21.978;2023-02-07T23:12:53;65.60;;;28.85;;
37131;SDS011;23035;50.032;21.978;2023-02-07T23:17:58;69.82;;;31.85;;
37131;SDS011;23035;50.032;21.978;2023-02-07T23:23:02;60.25;;;28.30;;
37131;SDS011;23035;50.032;21.978;2023-02-07T23:28:08;53.70;;;25.55;;
37131;SDS011;23035;50.032;21.978;2023-02-07T23:33:13;64.30;;;29.58;;
37131;SDS011;23035;50.032;21.978;2023-02-07T23:38:18;67.88;;;30.90;;
37131;SDS011;23035;50.032;21.978;2023-02-07T23:43:24;59.67;;;27.45;;
37131;SDS011;23035;50.032;21.978;2023-02-07T23:48:29;54.33;;;25.63;;
37131;SDS011;23035;50.032;21.978;2023-02-07T23:53:39;63.60;;;28.98;;
37131;SDS011;23035;50.032;21.978;2023-02-07T23:58:46;61.97;;;27.90;;
